sensor_id;sensor_type;location;lat;lon;timestamp;P1;durP1;ratioP1;P2;durP2;ratioP2
81672;SDS011;71092;41.158;-8.680;2024-03-17T00:00:22;13.48;;;7.05;;
81672;SDS011;71092;41.158;-8.680;2024-03-17T00:02:48;15.05;;;6.88;;
81672;SDS011;71092;41.158;-8.680;2024-03-17T00:05:14;12.98;;;7.20;;
81672;SDS011;71092;41.158;-8.680;2024-03-17T00:07:40;12.65;;;6.43;;
81672;SDS011;71092;41.158;-8.680;2024-03-17T00:10:07;14.55;;;7.45;;
81672;SDS011;71092;41.158;-8.680;2024-03-17T00:12:33;13.55;;;6.63;;
81672;SDS011;71092;41.158;-8.680;2024-03-17T00:14:59;14.07;;;6.13;;
81672;SDS011;71092;41.158;-8.680;2024-03-17T00:17:25;12.02;;;6.47;;
81672;SDS011;71092;41.158;-8.680;2024-03-17T00:19:51;12.32;;;6.88;;
81672;SDS011;71092;41.158;-8.680;2024-03-17T00:22:18;13.13;;;7.65;;
81672;SDS011;71092;41.158;-8.680;2024-03-17T00:24:45;13.00;;;6.95;;
81672;SDS011;71092;41.158;-8.680;2024-03-17T00:27:11;15.07;;;7.07;;
81672;SDS011;71092;41.158;-8.680;2024-03-17T00:29:37;12.23;;;6.25;;
81672;SDS011;71092;41.158;-8.680;2024-03-17T00:32:04;12.95;;;6.90;;
81672;SDS011;71092;41.158;-8.680;2024-03-17T00:34:31;12.55;;;6.32;;
81672;SDS011;71092;41.158;-8.680;2024-03-17T00:36:57;12.63;;;6.95;;
81672;SDS011;71092;41.158;-8.680;2024-03-17T00:39:25;10.73;;;5.97;;
81672;SDS011;71092;41.158;-8.680;2024-03-17T00:41:51;14.68;;;7.70;;
81672;SDS011;71092;41.158;-8.680;2024-03-17T00:44:17;11.32;;;7.05;;
81672;SDS011;71092;41.158;-8.680;2024-03-17T00:46:43;15.57;;;7.28;;
81672;SDS011;71092;41.158;-8.680;2024-03-17T00:49:09;14.32;;;7.65;;
81672;SDS011;71092;41.158;-8.680;2024-03-17T00:51:36;11.45;;;5.95;;
81672;SDS011;71092;41.158;-8.680;2024-03-17T00:54:02;13.75;;;6.32;;
81672;SDS011;71092;41.158;-8.680;2024-03-17T00:56:28;11.77;;;6.10;;
81672;SDS011;71092;41.158;-8.680;2024-03-17T00:58:54;12.30;;;6.43;;
81672;SDS011;71092;41.158;-8.680;2024-03-17T01:01:20;12.60;;;6.40;;
81672;SDS011;71092;41.158;-8.680;2024-03-17T01:03:47;10.85;;;6.30;;
81672;SDS011;71092;41.158;-8.680;2024-03-17T01:06:14;11.82;;;6.13;;
81672;SDS011;71092;41.158;-8.680;2024-03-17T01:08:40;11.88;;;6.53;;
81672;SDS011;71092;41.158;-8.680;2024-03-17T01:11:06;13.35;;;7.10;;
81672;SDS011;71092;41.158;-8.680;2024-03-17T01:13:34;11.55;;;6.05;;
81672;SDS011;71092;41.158;-8.680;2024-03-17T01:16:03;12.20;;;7.35;;
81672;SDS011;71092;41.158;-8.680;2024-03-17T01:18:29;15.10;;;6.85;;
81672;SDS011;71092;41.158;-8.680;2024-03-17T01:20:55;12.80;;;6.43;;
81672;SDS011;71092;41.158;-8.680;2024-03-17T01:23:21;11.63;;;6.40;;
81672;SDS011;71092;41.158;-8.680;2024-03-17T01:25:47;17.00;;;7.30;;
81672;SDS011;71092;41.158;-8.680;2024-03-17T01:28:13;10.80;;;6.85;;
81672;SDS011;71092;41.158;-8.680;2024-03-17T01:30:39;15.15;;;7.05;;
81672;SDS011;71092;41.158;-8.680;2024-03-17T01:33:06;10.32;;;6.03;;
81672;SDS011;71092;41.158;-8.680;2024-03-17T01:35:33;11.93;;;6.43;;
81672;SDS011;71092;41.158;-8.680;2024-03-17T01:37:59;12.32;;;6.63;;
81672;SDS011;71092;41.158;-8.680;2024-03-17T01:40:25;11.93;;;6.20;;
81672;SDS011;71092;41.158;-8.680;2024-03-17T01:42:51;11.20;;;6.57;;
81672;SDS011;71092;41.158;-8.680;2024-03-17T01:47:43;13.73;;;7.00;;
81672;SDS011;71092;41.158;-8.680;2024-03-17T01:50:09;12.02;;;7.18;;
81672;SDS011;71092;41.158;-8.680;2024-03-17T01:52:37;11.38;;;7.05;;
81672;SDS011;71092;41.158;-8.680;2024-03-17T01:55:04;11.00;;;6.72;;
81672;SDS011;71092;41.158;-8.680;2024-03-17T01:57:30;14.00;;;7.65;;
81672;SDS011;71092;41.158;-8.680;2024-03-17T01:59:56;12.25;;;7.57;;
81672;SDS011;71092;41.158;-8.680;2024-03-17T02:02:22;12.77;;;7.30;;
81672;SDS011;71092;41.158;-8.680;2024-03-17T02:04:48;14.23;;;7.05;;
81672;SDS011;71092;41.158;-8.680;2024-03-17T02:07:16;15.00;;;6.90;;
81672;SDS011;71092;41.158;-8.680;2024-03-17T02:09:42;11.68;;;7.00;;
81672;SDS011;71092;41.158;-8.680;2024-03-17T02:12:11;13.88;;;7.30;;
81672;SDS011;71092;41.158;-8.680;2024-03-17T02:14:37;15.68;;;7.80;;
81672;SDS011;71092;41.158;-8.680;2024-03-17T02:17:04;13.50;;;7.45;;
81672;SDS011;71092;41.158;-8.680;2024-03-17T02:19:30;15.38;;;6.82;;
81672;SDS011;71092;41.158;-8.680;2024-03-17T02:21:56;13.07;;;6.80;;
81672;SDS011;71092;41.158;-8.680;2024-03-17T02:24:22;15.30;;;7.72;;
81672;SDS011;71092;41.158;-8.680;2024-03-17T02:26:48;14.98;;;7.78;;
81672;SDS011;71092;41.158;-8.680;2024-03-17T02:29:14;13.38;;;7.15;;
81672;SDS011;71092;41.158;-8.680;2024-03-17T02:31:40;12.68;;;7.97;;
81672;SDS011;71092;41.158;-8.680;2024-03-17T02:34:06;13.95;;;7.88;;
81672;SDS011;71092;41.158;-8.680;2024-03-17T02:36:32;12.77;;;6.93;;
81672;SDS011;71092;41.158;-8.680;2024-03-17T02:38:58;16.45;;;7.03;;
81672;SDS011;71092;41.158;-8.680;2024-03-17T02:41:42;14.52;;;7.85;;
81672;SDS011;71092;41.158;-8.680;2024-03-17T02:44:09;16.75;;;7.30;;
81672;SDS011;71092;41.158;-8.680;2024-03-17T02:46:36;11.23;;;6.28;;
81672;SDS011;71092;41.158;-8.680;2024-03-17T02:49:03;13.73;;;6.72;;
81672;SDS011;71092;41.158;-8.680;2024-03-17T02:51:29;12.13;;;6.30;;
81672;SDS011;71092;41.158;-8.680;2024-03-17T02:53:55;14.15;;;8.55;;
81672;SDS011;71092;41.158;-8.680;2024-03-17T02:56:21;10.60;;;6.13;;
81672;SDS011;71092;41.158;-8.680;2024-03-17T02:58:48;14.80;;;7.53;;
81672;SDS011;71092;41.158;-8.680;2024-03-17T03:01:17;16.02;;;6.38;;
81672;SDS011;71092;41.158;-8.680;2024-03-17T03:03:44;16.38;;;6.82;;
81672;SDS011;71092;41.158;-8.680;2024-03-17T03:06:10;12.20;;;6.82;;
81672;SDS011;71092;41.158;-8.680;2024-03-17T03:08:40;14.50;;;6.85;;
81672;SDS011;71092;41.158;-8.680;2024-03-17T03:11:07;11.07;;;6.43;;
81672;SDS011;71092;41.158;-8.680;2024-03-17T03:13:37;12.93;;;6.95;;
81672;SDS011;71092;41.158;-8.680;2024-03-17T03:16:05;14.32;;;6.90;;
81672;SDS011;71092;41.158;-8.680;2024-03-17T03:18:32;12.48;;;6.72;;
81672;SDS011;71092;41.158;-8.680;2024-03-17T03:20:58;13.25;;;7.60;;
81672;SDS011;71092;41.158;-8.680;2024-03-17T03:23:24;13.85;;;7.72;;
81672;SDS011;71092;41.158;-8.680;2024-03-17T03:25:54;12.85;;;7.78;;
81672;SDS011;71092;41.158;-8.680;2024-03-17T03:28:22;13.98;;;7.60;;
81672;SDS011;71092;41.158;-8.680;2024-03-17T03:30:49;10.88;;;6.13;;
81672;SDS011;71092;41.158;-8.680;2024-03-17T03:33:15;16.30;;;6.65;;
81672;SDS011;71092;41.158;-8.680;2024-03-17T03:35:41;12.90;;;7.13;;
81672;SDS011;71092;41.158;-8.680;2024-03-17T03:38:06;13.80;;;7.30;;
81672;SDS011;71092;41.158;-8.680;2024-03-17T03:40:33;13.93;;;7.55;;
81672;SDS011;71092;41.158;-8.680;2024-03-17T03:42:59;12.73;;;7.53;;
81672;SDS011;71092;41.158;-8.680;2024-03-17T03:45:25;14.00;;;8.10;;
81672;SDS011;71092;41.158;-8.680;2024-03-17T03:47:51;13.98;;;7.38;;
81672;SDS011;71092;41.158;-8.680;2024-03-17T03:50:19;12.57;;;6.97;;
81672;SDS011;71092;41.158;-8.680;2024-03-17T03:52:46;13.93;;;8.13;;
81672;SDS011;71092;41.158;-8.680;2024-03-17T03:55:12;15.23;;;7.00;;
81672;SDS011;71092;41.158;-8.680;2024-03-17T03:57:44;13.40;;;7.18;;
81672;SDS011;71092;41.158;-8.680;2024-03-17T04:00:11;14.20;;;8.00;;
81672;SDS011;71092;41.158;-8.680;2024-03-17T04:02:39;12.93;;;7.10;;
81672;SDS011;71092;41.158;-8.680;2024-03-17T04:05:05;12.10;;;7.20;;
81672;SDS011;71092;41.158;-8.680;2024-03-17T04:07:31;15.38;;;8.18;;
81672;SDS011;71092;41.158;-8.680;2024-03-17T04:09:58;13.02;;;7.35;;
81672;SDS011;71092;41.158;-8.680;2024-03-17T04:12:24;14.40;;;7.43;;
81672;SDS011;71092;41.158;-8.680;2024-03-17T04:14:50;14.70;;;7.28;;
81672;SDS011;71092;41.158;-8.680;2024-03-17T04:17:19;13.18;;;8.07;;
81672;SDS011;71092;41.158;-8.680;2024-03-17T04:19:47;14.68;;;9.13;;
81672;SDS011;71092;41.158;-8.680;2024-03-17T04:22:14;14.45;;;7.47;;
81672;SDS011;71092;41.158;-8.680;2024-03-17T04:24:45;14.23;;;7.50;;
81672;SDS011;71092;41.158;-8.680;2024-03-17T04:27:11;14.45;;;7.10;;
81672;SDS011;71092;41.158;-8.680;2024-03-17T04:29:37;14.55;;;8.05;;
81672;SDS011;71092;41.158;-8.680;2024-03-17T04:32:03;15.15;;;7.45;;
81672;SDS011;71092;41.158;-8.680;2024-03-17T04:34:30;15.77;;;8.05;;
81672;SDS011;71092;41.158;-8.680;2024-03-17T04:36:57;14.52;;;6.97;;
81672;SDS011;71092;41.158;-8.680;2024-03-17T04:39:23;13.30;;;7.30;;
81672;SDS011;71092;41.158;-8.680;2024-03-17T04:41:50;13.65;;;7.47;;
81672;SDS011;71092;41.158;-8.680;2024-03-17T04:44:16;13.45;;;7.70;;
81672;SDS011;71092;41.158;-8.680;2024-03-17T04:46:43;13.57;;;6.80;;
81672;SDS011;71092;41.158;-8.680;2024-03-17T04:49:09;14.13;;;7.50;;
81672;SDS011;71092;41.158;-8.680;2024-03-17T04:51:35;14.68;;;7.40;;
81672;SDS011;71092;41.158;-8.680;2024-03-17T04:54:01;13.10;;;7.75;;
81672;SDS011;71092;41.158;-8.680;2024-03-17T04:56:32;13.63;;;8.43;;
81672;SDS011;71092;41.158;-8.680;2024-03-17T04:58:58;11.15;;;7.90;;
81672;SDS011;71092;41.158;-8.680;2024-03-17T05:01:25;13.00;;;8.55;;
81672;SDS011;71092;41.158;-8.680;2024-03-17T05:03:51;13.75;;;7.53;;
81672;SDS011;71092;41.158;-8.680;2024-03-17T05:06:17;14.18;;;7.43;;
81672;SDS011;71092;41.158;-8.680;2024-03-17T05:08:43;12.50;;;7.57;;
81672;SDS011;71092;41.158;-8.680;2024-03-17T05:11:11;13.88;;;7.45;;
81672;SDS011;71092;41.158;-8.680;2024-03-17T05:13:39;12.32;;;6.90;;
81672;SDS011;71092;41.158;-8.680;2024-03-17T05:16:05;16.40;;;7.85;;
81672;SDS011;71092;41.158;-8.680;2024-03-17T05:18:31;12.45;;;7.20;;
81672;SDS011;71092;41.158;-8.680;2024-03-17T05:21:01;13.70;;;7.93;;
81672;SDS011;71092;41.158;-8.680;2024-03-17T05:23:29;12.88;;;6.57;;
81672;SDS011;71092;41.158;-8.680;2024-03-17T05:25:56;14.55;;;7.53;;
81672;SDS011;71092;41.158;-8.680;2024-03-17T05:28:23;12.80;;;7.40;;
81672;SDS011;71092;41.158;-8.680;2024-03-17T05:30:49;14.20;;;7.22;;
81672;SDS011;71092;41.158;-8.680;2024-03-17T05:33:19;13.27;;;8.70;;
81672;SDS011;71092;41.158;-8.680;2024-03-17T05:35:50;12.75;;;7.85;;
81672;SDS011;71092;41.158;-8.680;2024-03-17T05:38:20;14.00;;;7.97;;
81672;SDS011;71092;41.158;-8.680;2024-03-17T05:40:56;13.93;;;8.10;;
81672;SDS011;71092;41.158;-8.680;2024-03-17T05:43:23;14.68;;;7.32;;
81672;SDS011;71092;41.158;-8.680;2024-03-17T05:45:59;13.75;;;8.45;;
81672;SDS011;71092;41.158;-8.680;2024-03-17T05:48:26;13.68;;;7.45;;
81672;SDS011;71092;41.158;-8.680;2024-03-17T05:50:52;14.23;;;7.93;;
81672;SDS011;71092;41.158;-8.680;2024-03-17T05:53:21;14.13;;;8.18;;
81672;SDS011;71092;41.158;-8.680;2024-03-17T05:55:51;17.42;;;7.13;;
81672;SDS011;71092;41.158;-8.680;2024-03-17T05:58:17;15.40;;;8.85;;
81672;SDS011;71092;41.158;-8.680;2024-03-17T06:00:43;15.80;;;8.68;;
81672;SDS011;71092;41.158;-8.680;2024-03-17T06:03:09;13.25;;;7.55;;
81672;SDS011;71092;41.158;-8.680;2024-03-17T06:05:36;15.63;;;9.07;;
81672;SDS011;71092;41.158;-8.680;2024-03-17T06:08:04;15.15;;;7.55;;
81672;SDS011;71092;41.158;-8.680;2024-03-17T06:10:31;12.63;;;7.30;;
81672;SDS011;71092;41.158;-8.680;2024-03-17T06:13:00;15.20;;;8.30;;
81672;SDS011;71092;41.158;-8.680;2024-03-17T06:15:26;15.23;;;8.48;;
81672;SDS011;71092;41.158;-8.680;2024-03-17T06:17:52;13.93;;;7.88;;
81672;SDS011;71092;41.158;-8.680;2024-03-17T06:20:19;14.57;;;7.85;;
81672;SDS011;71092;41.158;-8.680;2024-03-17T06:22:55;13.65;;;7.60;;
81672;SDS011;71092;41.158;-8.680;2024-03-17T06:25:22;13.27;;;7.50;;
81672;SDS011;71092;41.158;-8.680;2024-03-17T06:27:51;17.08;;;7.93;;
81672;SDS011;71092;41.158;-8.680;2024-03-17T06:30:17;14.90;;;8.23;;
81672;SDS011;71092;41.158;-8.680;2024-03-17T06:32:44;13.35;;;7.70;;
81672;SDS011;71092;41.158;-8.680;2024-03-17T06:35:11;11.90;;;7.82;;
81672;SDS011;71092;41.158;-8.680;2024-03-17T06:37:41;13.45;;;8.30;;
81672;SDS011;71092;41.158;-8.680;2024-03-17T06:40:12;12.20;;;7.35;;
81672;SDS011;71092;41.158;-8.680;2024-03-17T06:42:39;13.30;;;7.80;;
81672;SDS011;71092;41.158;-8.680;2024-03-17T06:45:05;14.98;;;7.60;;
81672;SDS011;71092;41.158;-8.680;2024-03-17T06:47:34;14.27;;;7.22;;
81672;SDS011;71092;41.158;-8.680;2024-03-17T06:50:04;14.23;;;7.97;;
81672;SDS011;71092;41.158;-8.680;2024-03-17T06:52:31;12.80;;;8.40;;
81672;SDS011;71092;41.158;-8.680;2024-03-17T06:54:57;12.27;;;7.68;;
81672;SDS011;71092;41.158;-8.680;2024-03-17T06:57:24;13.45;;;7.72;;
81672;SDS011;71092;41.158;-8.680;2024-03-17T06:59:51;13.60;;;7.82;;
81672;SDS011;71092;41.158;-8.680;2024-03-17T07:02:16;16.58;;;8.43;;
81672;SDS011;71092;41.158;-8.680;2024-03-17T07:04:43;12.95;;;7.68;;
81672;SDS011;71092;41.158;-8.680;2024-03-17T07:07:09;12.68;;;8.10;;
81672;SDS011;71092;41.158;-8.680;2024-03-17T07:09:36;14.40;;;8.15;;
81672;SDS011;71092;41.158;-8.680;2024-03-17T07:12:02;15.30;;;8.27;;
81672;SDS011;71092;41.158;-8.680;2024-03-17T07:14:29;14.52;;;7.63;;
81672;SDS011;71092;41.158;-8.680;2024-03-17T07:16:57;14.35;;;7.78;;
81672;SDS011;71092;41.158;-8.680;2024-03-17T07:19:23;13.40;;;7.75;;
81672;SDS011;71092;41.158;-8.680;2024-03-17T07:21:49;14.35;;;8.65;;
81672;SDS011;71092;41.158;-8.680;2024-03-17T07:24:14;14.07;;;7.38;;
81672;SDS011;71092;41.158;-8.680;2024-03-17T07:26:40;14.63;;;7.82;;
81672;SDS011;71092;41.158;-8.680;2024-03-17T07:29:06;15.82;;;8.30;;
81672;SDS011;71092;41.158;-8.680;2024-03-17T07:31:34;13.07;;;7.40;;
81672;SDS011;71092;41.158;-8.680;2024-03-17T07:34:00;13.10;;;7.72;;
81672;SDS011;71092;41.158;-8.680;2024-03-17T07:36:26;13.13;;;7.82;;
81672;SDS011;71092;41.158;-8.680;2024-03-17T07:38:52;14.77;;;8.18;;
81672;SDS011;71092;41.158;-8.680;2024-03-17T07:41:18;11.82;;;6.75;;
81672;SDS011;71092;41.158;-8.680;2024-03-17T07:43:45;15.85;;;8.60;;
81672;SDS011;71092;41.158;-8.680;2024-03-17T07:46:11;12.43;;;8.32;;
81672;SDS011;71092;41.158;-8.680;2024-03-17T07:48:38;16.52;;;7.90;;
81672;SDS011;71092;41.158;-8.680;2024-03-17T07:51:07;10.60;;;7.15;;
81672;SDS011;71092;41.158;-8.680;2024-03-17T07:53:34;14.98;;;8.02;;
81672;SDS011;71092;41.158;-8.680;2024-03-17T07:56:04;13.93;;;7.93;;
81672;SDS011;71092;41.158;-8.680;2024-03-17T07:58:37;14.65;;;7.70;;
81672;SDS011;71092;41.158;-8.680;2024-03-17T08:01:06;13.15;;;7.50;;
81672;SDS011;71092;41.158;-8.680;2024-03-17T08:03:34;14.32;;;8.23;;
81672;SDS011;71092;41.158;-8.680;2024-03-17T08:06:02;12.63;;;7.80;;
81672;SDS011;71092;41.158;-8.680;2024-03-17T08:08:30;13.45;;;7.40;;
81672;SDS011;71092;41.158;-8.680;2024-03-17T08:10:56;14.10;;;7.70;;
81672;SDS011;71092;41.158;-8.680;2024-03-17T08:13:23;13.32;;;7.97;;
81672;SDS011;71092;41.158;-8.680;2024-03-17T08:15:56;13.52;;;7.43;;
81672;SDS011;71092;41.158;-8.680;2024-03-17T08:18:23;16.30;;;9.07;;
81672;SDS011;71092;41.158;-8.680;2024-03-17T08:20:49;14.32;;;8.63;;
81672;SDS011;71092;41.158;-8.680;2024-03-17T08:23:15;15.23;;;8.23;;
81672;SDS011;71092;41.158;-8.680;2024-03-17T08:25:41;14.80;;;8.65;;
81672;SDS011;71092;41.158;-8.680;2024-03-17T08:28:07;25.48;;;9.00;;
81672;SDS011;71092;41.158;-8.680;2024-03-17T08:30:33;15.48;;;9.25;;
81672;SDS011;71092;41.158;-8.680;2024-03-17T08:32:59;13.68;;;8.75;;
81672;SDS011;71092;41.158;-8.680;2024-03-17T08:35:26;14.13;;;8.20;;
81672;SDS011;71092;41.158;-8.680;2024-03-17T08:37:52;15.10;;;7.90;;
81672;SDS011;71092;41.158;-8.680;2024-03-17T08:40:21;13.25;;;8.57;;
81672;SDS011;71092;41.158;-8.680;2024-03-17T08:42:48;13.85;;;9.43;;
81672;SDS011;71092;41.158;-8.680;2024-03-17T08:45:14;16.33;;;8.88;;
81672;SDS011;71092;41.158;-8.680;2024-03-17T08:47:42;14.32;;;9.75;;
81672;SDS011;71092;41.158;-8.680;2024-03-17T08:50:08;16.50;;;10.95;;
81672;SDS011;71092;41.158;-8.680;2024-03-17T08:52:38;16.27;;;10.43;;
81672;SDS011;71092;41.158;-8.680;2024-03-17T08:55:03;16.05;;;10.10;;
81672;SDS011;71092;41.158;-8.680;2024-03-17T08:57:35;15.07;;;9.20;;
81672;SDS011;71092;41.158;-8.680;2024-03-17T09:00:01;14.43;;;9.05;;
81672;SDS011;71092;41.158;-8.680;2024-03-17T09:02:29;14.20;;;9.77;;
81672;SDS011;71092;41.158;-8.680;2024-03-17T09:04:55;15.95;;;9.05;;
81672;SDS011;71092;41.158;-8.680;2024-03-17T09:07:21;13.75;;;8.77;;
81672;SDS011;71092;41.158;-8.680;2024-03-17T09:09:47;16.10;;;9.55;;
81672;SDS011;71092;41.158;-8.680;2024-03-17T09:12:13;13.63;;;9.68;;
81672;SDS011;71092;41.158;-8.680;2024-03-17T09:14:39;16.35;;;9.63;;
81672;SDS011;71092;41.158;-8.680;2024-03-17T09:17:07;14.93;;;8.55;;
81672;SDS011;71092;41.158;-8.680;2024-03-17T09:19:33;13.98;;;8.65;;
81672;SDS011;71092;41.158;-8.680;2024-03-17T09:21:59;14.25;;;9.63;;
81672;SDS011;71092;41.158;-8.680;2024-03-17T09:24:25;12.55;;;7.53;;
81672;SDS011;71092;41.158;-8.680;2024-03-17T09:26:52;15.48;;;8.82;;
81672;SDS011;71092;41.158;-8.680;2024-03-17T09:29:18;15.77;;;8.23;;
81672;SDS011;71092;41.158;-8.680;2024-03-17T09:31:44;13.38;;;9.10;;
81672;SDS011;71092;41.158;-8.680;2024-03-17T09:34:10;14.32;;;8.80;;
81672;SDS011;71092;41.158;-8.680;2024-03-17T09:36:36;18.20;;;9.00;;
81672;SDS011;71092;41.158;-8.680;2024-03-17T09:39:02;15.35;;;8.90;;
81672;SDS011;71092;41.158;-8.680;2024-03-17T09:41:30;13.32;;;9.05;;
81672;SDS011;71092;41.158;-8.680;2024-03-17T09:43:57;13.63;;;9.95;;
81672;SDS011;71092;41.158;-8.680;2024-03-17T09:46:23;13.18;;;9.50;;
81672;SDS011;71092;41.158;-8.680;2024-03-17T09:48:51;15.38;;;10.23;;
81672;SDS011;71092;41.158;-8.680;2024-03-17T09:51:24;14.05;;;9.68;;
81672;SDS011;71092;41.158;-8.680;2024-03-17T09:53:50;14.70;;;9.80;;
81672;SDS011;71092;41.158;-8.680;2024-03-17T09:56:18;13.95;;;10.18;;
81672;SDS011;71092;41.158;-8.680;2024-03-17T09:58:50;13.07;;;8.95;;
81672;SDS011;71092;41.158;-8.680;2024-03-17T10:01:17;14.07;;;10.40;;
81672;SDS011;71092;41.158;-8.680;2024-03-17T10:03:47;14.00;;;10.50;;
81672;SDS011;71092;41.158;-8.680;2024-03-17T10:06:24;14.90;;;9.63;;
81672;SDS011;71092;41.158;-8.680;2024-03-17T10:08:54;14.48;;;9.07;;
81672;SDS011;71092;41.158;-8.680;2024-03-17T10:11:33;15.50;;;10.43;;
81672;SDS011;71092;41.158;-8.680;2024-03-17T10:14:05;15.88;;;9.27;;
81672;SDS011;71092;41.158;-8.680;2024-03-17T10:16:33;13.48;;;10.10;;
81672;SDS011;71092;41.158;-8.680;2024-03-17T10:19:11;13.52;;;10.07;;
81672;SDS011;71092;41.158;-8.680;2024-03-17T10:21:45;13.30;;;8.80;;
81672;SDS011;71092;41.158;-8.680;2024-03-17T10:24:24;12.48;;;8.80;;
81672;SDS011;71092;41.158;-8.680;2024-03-17T10:26:52;13.38;;;10.32;;
81672;SDS011;71092;41.158;-8.680;2024-03-17T10:29:29;14.77;;;10.40;;
81672;SDS011;71092;41.158;-8.680;2024-03-17T10:31:58;13.35;;;9.05;;
81672;SDS011;71092;41.158;-8.680;2024-03-17T10:34:43;14.68;;;10.45;;
81672;SDS011;71092;41.158;-8.680;2024-03-17T10:39:50;14.60;;;9.75;;
81672;SDS011;71092;41.158;-8.680;2024-03-17T10:42:22;14.98;;;9.18;;
81672;SDS011;71092;41.158;-8.680;2024-03-17T10:44:51;12.57;;;10.23;;
81672;SDS011;71092;41.158;-8.680;2024-03-17T10:47:20;14.45;;;10.02;;
81672;SDS011;71092;41.158;-8.680;2024-03-17T10:49:47;12.68;;;9.82;;
81672;SDS011;71092;41.158;-8.680;2024-03-17T10:52:16;15.48;;;9.98;;
81672;SDS011;71092;41.158;-8.680;2024-03-17T10:54:46;15.32;;;10.65;;
81672;SDS011;71092;41.158;-8.680;2024-03-17T11:00:21;13.13;;;9.30;;
81672;SDS011;71092;41.158;-8.680;2024-03-17T11:02:51;13.48;;;10.18;;
81672;SDS011;71092;41.158;-8.680;2024-03-17T11:07:51;13.18;;;10.25;;
81672;SDS011;71092;41.158;-8.680;2024-03-17T11:10:26;13.63;;;9.48;;
81672;SDS011;71092;41.158;-8.680;2024-03-17T11:13:00;14.75;;;10.77;;
81672;SDS011;71092;41.158;-8.680;2024-03-17T11:18:25;13.07;;;9.50;;
81672;SDS011;71092;41.158;-8.680;2024-03-17T11:20:59;12.80;;;9.55;;
81672;SDS011;71092;41.158;-8.680;2024-03-17T11:23:33;12.55;;;9.70;;
81672;SDS011;71092;41.158;-8.680;2024-03-17T11:26:00;12.38;;;9.48;;
81672;SDS011;71092;41.158;-8.680;2024-03-17T11:33:59;13.32;;;9.75;;
81672;SDS011;71092;41.158;-8.680;2024-03-17T11:36:37;14.60;;;10.45;;
81672;SDS011;71092;41.158;-8.680;2024-03-17T11:39:07;13.75;;;9.23;;
81672;SDS011;71092;41.158;-8.680;2024-03-17T11:41:47;15.63;;;10.50;;
81672;SDS011;71092;41.158;-8.680;2024-03-17T11:47:02;13.00;;;9.45;;
81672;SDS011;71092;41.158;-8.680;2024-03-17T11:49:33;14.10;;;10.32;;
81672;SDS011;71092;41.158;-8.680;2024-03-17T11:52:15;14.68;;;9.45;;
81672;SDS011;71092;41.158;-8.680;2024-03-17T11:54:43;14.68;;;9.73;;
81672;SDS011;71092;41.158;-8.680;2024-03-17T11:57:10;15.18;;;10.65;;
81672;SDS011;71092;41.158;-8.680;2024-03-17T11:59:44;16.48;;;10.95;;
81672;SDS011;71092;41.158;-8.680;2024-03-17T12:02:18;18.63;;;10.57;;
81672;SDS011;71092;41.158;-8.680;2024-03-17T12:04:49;17.63;;;10.32;;
81672;SDS011;71092;41.158;-8.680;2024-03-17T12:07:16;25.17;;;10.18;;
81672;SDS011;71092;41.158;-8.680;2024-03-17T12:09:43;33.13;;;10.98;;
81672;SDS011;71092;41.158;-8.680;2024-03-17T12:12:17;26.88;;;10.38;;
81672;SDS011;71092;41.158;-8.680;2024-03-17T12:14:45;28.13;;;12.00;;
81672;SDS011;71092;41.158;-8.680;2024-03-17T12:17:12;24.65;;;11.63;;
81672;SDS011;71092;41.158;-8.680;2024-03-17T12:19:44;28.58;;;11.13;;
81672;SDS011;71092;41.158;-8.680;2024-03-17T12:22:20;26.10;;;11.98;;
81672;SDS011;71092;41.158;-8.680;2024-03-17T12:24:50;24.48;;;10.63;;
81672;SDS011;71092;41.158;-8.680;2024-03-17T12:27:20;22.60;;;11.38;;
81672;SDS011;71092;41.158;-8.680;2024-03-17T12:29:47;23.95;;;12.25;;
81672;SDS011;71092;41.158;-8.680;2024-03-17T12:32:17;26.40;;;10.57;;
81672;SDS011;71092;41.158;-8.680;2024-03-17T12:34:44;24.58;;;12.07;;
81672;SDS011;71092;41.158;-8.680;2024-03-17T12:37:21;26.42;;;11.45;;
81672;SDS011;71092;41.158;-8.680;2024-03-17T12:39:48;29.08;;;12.48;;
81672;SDS011;71092;41.158;-8.680;2024-03-17T12:42:15;27.48;;;12.55;;
81672;SDS011;71092;41.158;-8.680;2024-03-17T12:44:54;31.23;;;13.63;;
81672;SDS011;71092;41.158;-8.680;2024-03-17T12:47:21;26.23;;;12.02;;
81672;SDS011;71092;41.158;-8.680;2024-03-17T12:49:48;34.58;;;12.85;;
81672;SDS011;71092;41.158;-8.680;2024-03-17T12:55:00;51.05;;;14.52;;
81672;SDS011;71092;41.158;-8.680;2024-03-17T12:57:45;22.13;;;8.82;;
81672;SDS011;71092;41.158;-8.680;2024-03-17T13:00:31;37.25;;;13.07;;
81672;SDS011;71092;41.158;-8.680;2024-03-17T13:03:04;34.17;;;11.40;;
81672;SDS011;71092;41.158;-8.680;2024-03-17T13:05:34;31.10;;;10.57;;
81672;SDS011;71092;41.158;-8.680;2024-03-17T13:08:00;24.17;;;11.05;;
81672;SDS011;71092;41.158;-8.680;2024-03-17T13:10:27;27.52;;;11.38;;
81672;SDS011;71092;41.158;-8.680;2024-03-17T13:13:00;35.30;;;12.77;;
81672;SDS011;71092;41.158;-8.680;2024-03-17T13:15:31;34.72;;;10.60;;
81672;SDS011;71092;41.158;-8.680;2024-03-17T13:17:57;34.65;;;11.90;;
81672;SDS011;71092;41.158;-8.680;2024-03-17T13:20:26;34.75;;;13.68;;
81672;SDS011;71092;41.158;-8.680;2024-03-17T13:22:54;25.67;;;12.15;;
81672;SDS011;71092;41.158;-8.680;2024-03-17T13:25:21;28.88;;;13.45;;
81672;SDS011;71092;41.158;-8.680;2024-03-17T13:27:50;30.17;;;14.30;;
81672;SDS011;71092;41.158;-8.680;2024-03-17T13:30:20;25.85;;;12.88;;
81672;SDS011;71092;41.158;-8.680;2024-03-17T13:32:52;27.50;;;12.35;;
81672;SDS011;71092;41.158;-8.680;2024-03-17T13:35:28;31.15;;;14.25;;
81672;SDS011;71092;41.158;-8.680;2024-03-17T13:37:55;27.27;;;12.45;;
81672;SDS011;71092;41.158;-8.680;2024-03-17T13:40:25;28.52;;;13.25;;
81672;SDS011;71092;41.158;-8.680;2024-03-17T13:42:52;24.70;;;12.43;;
81672;SDS011;71092;41.158;-8.680;2024-03-17T13:45:19;28.25;;;12.35;;
81672;SDS011;71092;41.158;-8.680;2024-03-17T13:47:53;30.02;;;12.93;;
81672;SDS011;71092;41.158;-8.680;2024-03-17T13:50:21;25.05;;;11.98;;
81672;SDS011;71092;41.158;-8.680;2024-03-17T13:52:47;32.05;;;14.00;;
81672;SDS011;71092;41.158;-8.680;2024-03-17T13:55:14;29.55;;;13.10;;
81672;SDS011;71092;41.158;-8.680;2024-03-17T13:57:51;28.55;;;12.48;;
81672;SDS011;71092;41.158;-8.680;2024-03-17T14:00:20;25.35;;;12.98;;
81672;SDS011;71092;41.158;-8.680;2024-03-17T14:02:47;26.02;;;13.20;;
81672;SDS011;71092;41.158;-8.680;2024-03-17T14:05:15;26.92;;;12.80;;
81672;SDS011;71092;41.158;-8.680;2024-03-17T14:07:42;25.55;;;13.48;;
81672;SDS011;71092;41.158;-8.680;2024-03-17T14:10:13;25.55;;;13.60;;
81672;SDS011;71092;41.158;-8.680;2024-03-17T14:12:40;29.23;;;14.48;;
81672;SDS011;71092;41.158;-8.680;2024-03-17T14:15:10;28.10;;;13.80;;
81672;SDS011;71092;41.158;-8.680;2024-03-17T14:17:37;26.08;;;13.70;;
81672;SDS011;71092;41.158;-8.680;2024-03-17T14:20:04;25.00;;;12.90;;
81672;SDS011;71092;41.158;-8.680;2024-03-17T14:22:38;27.20;;;14.48;;
81672;SDS011;71092;41.158;-8.680;2024-03-17T14:25:09;28.73;;;12.63;;
81672;SDS011;71092;41.158;-8.680;2024-03-17T14:27:38;26.45;;;12.38;;
81672;SDS011;71092;41.158;-8.680;2024-03-17T14:30:04;26.30;;;13.00;;
81672;SDS011;71092;41.158;-8.680;2024-03-17T14:32:31;25.23;;;12.77;;
81672;SDS011;71092;41.158;-8.680;2024-03-17T14:34:57;27.70;;;13.27;;
81672;SDS011;71092;41.158;-8.680;2024-03-17T14:37:23;25.67;;;12.35;;
81672;SDS011;71092;41.158;-8.680;2024-03-17T14:39:53;26.77;;;12.75;;
81672;SDS011;71092;41.158;-8.680;2024-03-17T14:42:20;28.40;;;12.20;;
81672;SDS011;71092;41.158;-8.680;2024-03-17T14:44:46;24.88;;;12.73;;
81672;SDS011;71092;41.158;-8.680;2024-03-17T14:47:15;25.60;;;13.38;;